North Beach, Maryland
Current Conditions -  °F | °C
As of 12:54 PM on Tuesday 21 Oct 2014 (Local Time) from KNAK Reporting Station
Scattered Clouds Scattered Clouds  
Wind Chill: 63°   Ceiling: Unl
Heat Index: 63°   Visibility: 10mi
Dew Point: 53°   Wind: 8mph
Humidity: 70%   Direction: 130°SE
Pressure: 29.84"   Gusts: NA
Location:  38.71°N, 76.53°W
Report Text: KNAK 211654Z AUTO 13007KT 10SM SCT100 17/12 A2984 RMK AO2 SLP107 T01720117
Loading
Personal Weather Stations






























Interactive Weather Map
Tropical Storm Tracking
New forecast layout! Learn more

10-Day Weather Forecast

Advertisements
Track Severe Weather on mobile